クリスマス島 の空港の天気 - METARとTAF

クリスマス島空港 ( YPXM / XCH ) - クリスマス島 クリスマス島
飛行場実況気象(Metar)
観測時間08/18 20:30 CXT (08/18 13:30 UTC)
風向・風速東南東 8m/s
視程10km以上
天気現象
全天の8割程度の雲 雲底高度 670m
気温24℃
湿度78%
気圧1014hPa
METARYPXM 181330Z AUTO 12015KT 9999 // BKN022 24/20 Q1014 RF00.0/000.0
過去の天気等 Google飛行場航空写真 Wunderground天気予報

過去48時間のMETAR

飛行場予報(TAF)
発表時間: 8/18 18:07 CXT (8/18 11:07 UTC)
予報対象時間: 18日19時 CXT ~ 19日19時 CXT
風向・風速東南東 9m/s
視程10km以上
全天の4割程度の雲 雲底高度 490m
TAF YPXM 181107Z 1812/1912 11018KT 9999 SCT016